CPZ3 weather

Trenton / Mountain View Airport
Prince Edward County, Ontario, Canada

Public forecast

Using degrees Celsius for public forecast. Weather courtesy of forecast.io.

Closest aviation weather report (METAR) to Trenton / Mountain View Airport

Closest report is CFB Trenton, 8.7 nm (16.1 km) WNW. Retrieved 2019/12/11 21:39 UTC (16 minutes ago):

CYTR 112139Z 28023G30KT 1/2SM -SHSN BLSN VV003 M05/M08 A3022 RMK SN8 SLP239

Closest aviation forecast (TAF) to Trenton / Mountain View Airport

Closest forecast is CFB Trenton, 8.7 nm (16.1 km) WNW. Retrieved 2019/12/11 18:31 UTC (3 hours ago):

TAF CYTR 111730Z 1118/1218 26015G25KT 1/4SM +SHSN VV002 BECMG 1118/1119 3SM -SHSN OVC020 FM111900 26018G28KT P6SM SCT020 OVC030 TEMPO 1119/1120 3SM -SHSN OVC020 FM112000 26018G28KT P6SM BKN040 FM120000 27015G25KT P6SM FEW040 BECMG 1200/1202 27010KT BECMG 1210/1212 27005KT FM121600 27008KT P6SM SCT025 BKN100 RMK NXT FCST BY 120000Z